Time;durP1;ratioP1;P1;durP2;ratioP2;P2;SDS_P1;SDS_P2;PMS_P1;PMS_P2;Temp;Humidity;BMP_temperature;BMP_pressure;BME280_temperature;BME280_humidity;BME280_pressure;Samples;Min_cycle;Max_cycle;Signal;HPM_P1;HPM_P2
2022/06/27 00:00:33;;;;;;;13.27;3.50;;;;;;;22.98;49.07;98619.16;5074859;28;20044;-94
2022/06/27 00:02:59;;;;;;;16.10;3.58;;;;;;;22.74;49.11;98595.72;5074699;28;20090;-93
2022/06/27 00:05:26;;;;;;;15.27;4.38;;;;;;;22.75;49.99;98624.56;5074157;28;20058;-94
2022/06/27 00:07:52;;;;;;;13.15;3.50;;;;;;;22.74;49.83;98630.09;5074242;28;20036;-93
2022/06/27 00:10:18;;;;;;;7.63;3.30;;;;;;;22.58;49.59;98595.25;5074363;28;20649;-93
2022/06/27 00:12:44;;;;;;;12.18;4.03;;;;;;;22.62;49.87;98610.28;5074276;28;20065;-94
2022/06/27 00:15:11;;;;;;;12.35;3.60;;;;;;;22.58;49.53;98597.09;5074050;28;20040;-94
2022/06/27 00:17:36;;;;;;;14.05;4.18;;;;;;;22.50;49.52;98592.25;5073999;28;20110;-93
2022/06/27 00:20:03;;;;;;;14.10;3.80;;;;;;;22.62;50.37;98620.22;5074606;28;20036;-95
2022/06/27 00:22:30;;;;;;;14.10;4.03;;;;;;;22.45;50.27;98600.75;5074074;28;20378;-94
2022/06/27 00:24:56;;;;;;;12.82;3.67;;;;;;;22.51;50.30;98604.81;5074285;28;20040;-92
2022/06/27 00:27:22;;;;;;;10.88;4.00;;;;;;;22.34;51.82;98589.91;5074074;28;20150;-94
2022/06/27 00:29:48;;;;;;;10.77;3.75;;;;;;;22.50;50.92;98616.66;5074046;28;20048;-93
2022/06/27 00:32:16;;;;;;;10.85;3.55;;;;;;;22.54;50.23;98601.88;5074138;28;20498;-92
2022/06/27 00:34:42;;;;;;;11.17;3.63;;;;;;;22.46;50.43;98604.31;5074600;28;20044;-94
2022/06/27 00:37:08;;;;;;;10.25;4.05;;;;;;;22.40;51.47;98594.81;5073870;28;20036;-93
2022/06/27 00:39:35;;;;;;;15.07;4.25;;;;;;;22.55;50.15;98606.31;5074234;28;20401;-94
2022/06/27 00:42:01;;;;;;;14.55;3.92;;;;;;;22.52;50.42;98591.16;5073903;28;20048;-94
2022/06/27 00:44:32;;;;;;;9.25;3.97;;;;;;;22.54;51.12;98589.19;5073754;28;20482;-94
2022/06/27 00:46:58;;;;;;;11.45;4.63;;;;;;;22.50;51.24;98595.81;5073764;28;20075;-92
2022/06/27 00:49:24;;;;;;;12.63;5.18;;;;;;;22.46;50.01;98580.78;5074222;28;20458;-95
2022/06/27 00:51:49;;;;;;;11.43;4.57;;;;;;;22.57;50.12;98607.03;5075669;28;20040;-94
2022/06/27 00:54:15;;;;;;;14.40;4.75;;;;;;;22.44;50.94;98592.75;5077324;28;20037;-94
2022/06/27 00:56:43;;;;;;;17.92;5.78;;;;;;;22.45;50.62;98595.34;5077535;28;20098;-96
2022/06/27 00:59:09;;;;;;;16.08;5.22;;;;;;;22.53;50.28;98605.56;5078245;28;20048;-95
2022/06/27 01:01:34;;;;;;;14.95;4.80;;;;;;;22.47;49.94;98578.97;5077954;28;20037;-93
2022/06/27 01:04:01;;;;;;;13.13;4.97;;;;;;;22.74;49.04;98603.84;5077330;28;20524;-93
2022/06/27 01:06:27;;;;;;;15.63;4.55;;;;;;;22.68;49.40;98579.09;5077231;28;20040;-93
2022/06/27 01:08:53;;;;;;;17.17;4.53;;;;;;;22.77;49.23;98598.22;5077892;28;20094;-93
2022/06/27 01:11:19;;;;;;;14.98;5.15;;;;;;;22.84;49.69;98617.56;5077197;28;20049;-94
2022/06/27 01:13:47;;;;;;;13.00;4.57;;;;;;;22.87;49.75;98613.72;5077702;28;20131;-95
2022/06/27 01:16:14;;;;;;;15.75;4.50;;;;;;;22.79;49.82;98614.34;5078404;28;20041;-94
2022/06/27 01:18:40;;;;;;;19.38;4.50;;;;;;;22.66;49.58;98595.50;5078543;28;20049;-95
2022/06/27 01:21:06;;;;;;;8.43;4.07;;;;;;;22.71;49.38;98612.25;5078054;28;20056;-93
2022/06/27 01:23:35;;;;;;;14.10;4.95;;;;;;;22.56;50.10;98592.63;5077469;28;20131;-94
2022/06/27 01:26:00;;;;;;;13.57;5.05;;;;;;;22.50;50.05;98609.38;5077310;28;20037;-93
2022/06/27 01:28:27;;;;;;;11.52;4.28;;;;;;;22.35;50.79;98599.75;5076914;28;20041;-95
2022/06/27 01:30:53;;;;;;;15.00;4.65;;;;;;;22.41;52.17;98633.63;5076670;28;20048;-93
2022/06/27 01:33:19;;;;;;;10.98;4.78;;;;;;;22.16;52.63;98616.53;5076827;28;20045;-93
2022/06/27 01:35:45;;;;;;;16.40;4.47;;;;;;;22.38;52.05;98648.28;5077250;28;20045;-94
2022/06/27 01:38:10;;;;;;;20.75;4.53;;;;;;;22.19;51.83;98626.28;5077208;28;20040;-95
2022/06/27 01:40:39;;;;;;;14.25;4.50;;;;;;;22.10;51.71;98630.56;5076938;28;20070;-93
2022/06/27 01:43:05;;;;;;;9.52;4.40;;;;;;;22.03;52.70;98622.03;5076724;28;20055;-93
2022/06/27 01:45:32;;;;;;;12.95;4.20;;;;;;;21.88;52.42;98610.53;5076701;28;20068;-94
2022/06/27 01:47:58;;;;;;;12.88;4.20;;;;;;;21.95;52.07;98628.03;5076340;28;20048;-94
2022/06/27 01:50:25;;;;;;;12.05;3.95;;;;;;;22.15;51.88;98648.16;5076546;28;20455;-93
2022/06/27 01:52:52;;;;;;;13.40;3.97;;;;;;;21.91;51.81;98618.41;5076450;28;20110;-94
2022/06/27 01:55:19;;;;;;;9.75;4.00;;;;;;;21.88;52.12;98615.97;5076231;28;20128;-93
2022/06/27 01:57:48;;;;;;;13.18;4.07;;;;;;;22.01;52.65;98640.25;5076594;28;20048;-93
2022/06/27 02:00:15;;;;;;;9.30;3.65;;;;;;;21.90;52.84;98623.94;5076265;28;20512;-94
2022/06/27 02:02:41;;;;;;;9.05;3.70;;;;;;;21.89;52.69;98623.09;5076536;28;20071;-94
2022/06/27 02:05:07;;;;;;;12.27;3.70;;;;;;;21.88;52.79;98623.19;5075813;28;20041;-94
2022/06/27 02:07:34;;;;;;;7.75;3.00;;;;;;;21.74;52.64;98602.59;5076004;28;20441;-93
2022/06/27 02:10:00;;;;;;;12.40;3.63;;;;;;;21.80;53.30;98625.63;5076074;28;20044;-92
2022/06/27 02:12:28;;;;;;;13.20;4.07;;;;;;;21.86;52.80;98622.44;5076135;28;20045;-94
2022/06/27 02:14:55;;;;;;;12.50;3.90;;;;;;;21.70;52.35;98591.13;5076064;28;20045;-94
2022/06/27 02:17:22;;;;;;;12.90;4.25;;;;;;;21.84;51.83;98597.31;5076230;28;20063;-93
2022/06/27 02:19:49;;;;;;;11.55;3.88;;;;;;;22.08;51.24;98609.00;5076764;28;20131;-94
2022/06/27 02:22:15;;;;;;;15.13;4.70;;;;;;;22.23;50.22;98593.47;5076771;28;20485;-94
2022/06/27 02:24:41;;;;;;;14.00;4.20;;;;;;;22.20;49.89;98547.59;5077248;28;20068;-95
2022/06/27 02:27:08;;;;;;;13.73;4.63;;;;;;;22.40;49.71;98561.44;5078925;28;20104;-95
2022/06/27 02:29:33;;;;;;;11.65;4.13;;;;;;;22.34;50.45;98551.97;5078074;28;20044;-95
2022/06/27 02:32:01;;;;;;;10.15;4.68;;;;;;;22.20;50.08;98539.47;5077501;28;20094;-96
2022/06/27 02:34:27;;;;;;;16.67;4.47;;;;;;;22.42;50.11;98582.03;5076546;28;20055;-93
2022/06/27 02:36:56;;;;;;;11.48;3.75;;;;;;;22.40;50.40;98578.56;5075530;28;20453;-93
2022/06/27 02:39:26;;;;;;;14.77;4.75;;;;;;;22.26;50.30;98533.59;5076146;28;20079;-94
2022/06/27 02:41:54;;;;;;;13.30;4.55;;;;;;;22.40;50.05;98528.94;5076063;28;20451;-94
2022/06/27 02:44:21;;;;;;;13.13;4.75;;;;;;;22.40;51.15;98527.09;5076575;28;20394;-95
2022/06/27 02:46:49;;;;;;;13.63;4.53;;;;;;;22.32;52.66;98543.97;5075727;28;20040;-95
2022/06/27 02:49:19;;;;;;;16.30;5.10;;;;;;;21.92;53.96;98538.94;5079030;28;20048;-95
2022/06/27 02:51:53;;;;;;;13.30;4.60;;;;;;;21.97;54.32;98562.06;5076686;28;20551;-93
2022/06/27 02:54:21;;;;;;;11.00;4.18;;;;;;;21.95;54.22;98556.78;5075728;28;20049;-94
2022/06/27 02:56:51;;;;;;;13.20;3.92;;;;;;;21.69;54.23;98524.47;5075991;28;20586;-94
2022/06/27 02:59:19;;;;;;;12.75;4.05;;;;;;;21.69;54.77;98566.91;5076403;28;20048;-93
2022/06/27 03:01:48;;;;;;;12.90;4.40;;;;;;;21.52;55.52;98550.09;5075258;28;20052;-94
2022/06/27 03:04:14;;;;;;;12.63;4.35;;;;;;;21.43;55.87;98577.84;5075497;28;20124;-96
2022/06/27 03:06:44;;;;;;;10.02;4.47;;;;;;;21.27;56.31;98569.09;5075503;28;20106;-95
2022/06/27 03:09:10;;;;;;;13.02;4.70;;;;;;;21.20;55.93;98571.41;5075764;28;20067;-93
2022/06/27 03:11:36;;;;;;;16.98;4.75;;;;;;;21.17;55.92;98597.81;5077920;28;20040;-93
2022/06/27 03:14:02;;;;;;;12.40;4.10;;;;;;;21.22;54.87;98601.03;5075120;28;20051;-93
2022/06/27 03:16:28;;;;;;;12.20;4.45;;;;;;;21.17;54.81;98576.19;5075773;28;20438;-94
2022/06/27 03:18:54;;;;;;;15.27;4.32;;;;;;;21.42;54.45;98599.59;5076429;28;20044;-94
2022/06/27 03:21:20;;;;;;;13.93;4.30;;;;;;;21.28;53.87;98587.94;5076092;28;20586;-94
2022/06/27 03:23:48;;;;;;;12.30;4.43;;;;;;;21.43;54.33;98604.03;5075499;28;20040;-94
2022/06/27 03:26:15;;;;;;;15.40;4.40;;;;;;;21.29;55.32;98583.38;5075441;28;20040;-92
2022/06/27 03:28:41;;;;;;;10.40;4.03;;;;;;;21.34;56.08;98610.97;5075106;28;20068;-94
2022/06/27 03:31:07;;;;;;;9.95;3.90;;;;;;;21.34;55.55;98610.97;5074840;28;20041;-93
2022/06/27 03:33:33;;;;;;;13.00;4.32;;;;;;;21.30;56.20;98609.47;5075002;28;20032;-94
2022/06/27 03:35:59;;;;;;;9.95;4.03;;;;;;;21.12;56.55;98582.78;5075592;28;20210;-93
2022/06/27 03:38:25;;;;;;;10.60;3.50;;;;;;;21.17;56.05;98608.63;5075542;28;20044;-94
2022/06/27 03:40:52;;;;;;;13.50;3.80;;;;;;;20.97;57.20;98585.72;5075364;28;20054;-93
2022/06/27 03:43:18;;;;;;;10.77;4.45;;;;;;;21.05;57.61;98616.63;5075493;28;20041;-94
2022/06/27 03:45:43;;;;;;;11.68;3.97;;;;;;;20.85;58.27;98599.16;5075304;28;20047;-96
2022/06/27 03:49:59;;;;;;;14.90;4.75;;;;;;;20.73;59.16;98589.22;5075639;28;20410;-93
2022/06/27 03:50:55;;;;;;;11.68;4.60;;;;;;;20.77;59.89;98612.34;5074571;28;20098;-94
2022/06/27 03:53:21;;;;;;;11.35;4.60;;;;;;;20.76;60.66;98626.00;5075147;28;20036;-93
2022/06/27 03:55:46;;;;;;;13.70;4.80;;;;;;;20.56;61.36;98594.94;5074842;28;20044;-93
2022/06/27 03:58:14;;;;;;;14.00;4.90;;;;;;;20.49;61.17;98592.69;5074745;28;20048;-93
2022/06/27 04:00:39;;;;;;;13.23;5.85;;;;;;;20.58;61.36;98626.34;5075022;28;20048;-93
2022/06/27 04:03:05;;;;;;;11.00;5.13;;;;;;;20.58;61.17;98628.16;5074760;28;20051;-93
2022/06/27 04:05:31;;;;;;;14.68;4.55;;;;;;;20.40;62.44;98617.63;5074513;28;20139;-94
2022/06/27 04:07:57;;;;;;;13.75;4.32;;;;;;;20.41;62.32;98627.47;5074935;28;20051;-93
2022/06/27 04:10:23;;;;;;;14.68;4.95;;;;;;;20.48;61.65;98638.72;5074699;28;20040;-93
2022/06/27 04:12:49;;;;;;;14.75;4.72;;;;;;;20.40;62.01;98633.84;5075071;28;20045;-93
2022/06/27 04:15:16;;;;;;;14.63;4.15;;;;;;;20.31;62.57;98619.13;5074880;28;20509;-93
2022/06/27 04:17:42;;;;;;;14.15;4.05;;;;;;;20.32;61.89;98614.63;5075077;28;20036;-94
2022/06/27 04:20:09;;;;;;;10.68;4.05;;;;;;;20.40;62.12;98623.03;5075099;28;20094;-94
2022/06/27 04:22:35;;;;;;;12.88;4.00;;;;;;;20.45;61.83;98623.59;5074873;28;20044;-94
2022/06/27 04:25:01;;;;;;;13.00;4.82;;;;;;;20.48;62.42;98615.25;5074657;28;20053;-95
2022/06/27 04:27:27;;;;;;;9.52;4.30;;;;;;;20.75;63.10;98635.94;5077600;28;20070;-93
2022/06/27 04:29:54;;;;;;;11.27;3.95;;;;;;;20.79;59.77;98620.38;5078888;28;20037;-94
2022/06/27 04:32:23;;;;;;;12.57;4.32;;;;;;;20.85;61.67;98603.72;5078691;28;20091;-94
2022/06/27 04:34:49;;;;;;;13.10;4.97;;;;;;;21.04;61.23;98625.75;5078291;28;20123;-94
2022/06/27 04:37:17;;;;;;;15.32;4.57;;;;;;;21.10;61.53;98609.09;5078291;28;20055;-92
2022/06/27 04:39:43;;;;;;;14.82;5.28;;;;;;;21.22;61.67;98603.75;5078159;28;20041;-93
2022/06/27 04:42:10;;;;;;;8.85;4.57;;;;;;;21.20;61.73;98595.75;5078364;28;20060;-93
2022/06/27 04:44:36;;;;;;;13.15;5.22;;;;;;;21.23;60.01;98597.34;5078877;28;20510;-92
2022/06/27 04:47:08;;;;;;;16.88;5.80;;;;;;;21.50;62.06;98622.41;5078019;28;20044;-93
2022/06/27 04:49:35;;;;;;;11.98;5.00;;;;;;;21.63;61.45;98618.78;5077910;28;20115;-93
2022/06/27 04:52:03;;;;;;;12.32;4.43;;;;;;;21.61;60.83;98590.97;5077901;28;20052;-93
2022/06/27 04:54:29;;;;;;;13.05;5.40;;;;;;;21.94;60.41;98615.47;5077792;28;20045;-92
2022/06/27 04:56:55;;;;;;;13.10;5.20;;;;;;;22.26;59.98;98619.44;5077927;28;20045;-94
2022/06/27 04:59:22;;;;;;;16.10;5.22;;;;;;;22.43;59.27;98586.47;5077906;28;20045;-92
2022/06/27 05:01:50;;;;;;;13.57;4.78;;;;;;;22.82;59.29;98622.25;5077978;28;20473;-93
2022/06/27 05:04:16;;;;;;;13.57;5.10;;;;;;;23.07;57.73;98628.41;5077687;28;20074;-93
2022/06/27 05:06:44;;;;;;;13.88;4.60;;;;;;;23.25;55.20;98617.91;5077678;28;20040;-94
2022/06/27 05:09:10;;;;;;;14.73;5.25;;;;;;;23.45;54.03;98632.59;5077741;28;20044;-93
2022/06/27 05:11:35;;;;;;;11.65;4.43;;;;;;;23.66;53.71;98647.09;5078283;28;20131;-93
2022/06/27 05:14:03;;;;;;;12.40;4.90;;;;;;;23.72;53.14;98630.28;5077909;28;20212;-94
2022/06/27 05:16:29;;;;;;;14.73;4.90;;;;;;;23.82;52.14;98644.00;5077927;28;20055;-93
2022/06/27 05:18:55;;;;;;;16.10;4.82;;;;;;;24.15;53.54;98648.41;5077341;28;20083;-93
2022/06/27 05:21:21;;;;;;;16.23;5.13;;;;;;;24.20;51.77;98634.44;5077281;28;20076;-92
2022/06/27 05:23:50;;;;;;;11.55;4.68;;;;;;;24.46;51.07;98659.38;5077031;28;20045;-93
2022/06/27 05:26:16;;;;;;;14.82;4.80;;;;;;;24.55;50.42;98642.34;5076972;28;20044;-93
2022/06/27 05:28:42;;;;;;;14.40;5.10;;;;;;;24.67;50.52;98651.25;5078337;28;20044;-93
2022/06/27 05:31:09;;;;;;;11.40;4.50;;;;;;;24.74;50.62;98657.03;5080248;28;20095;-93
2022/06/27 05:33:35;;;;;;;12.10;4.63;;;;;;;24.92;50.96;98677.19;5078902;28;20047;-93
2022/06/27 05:36:01;;;;;;;14.65;4.80;;;;;;;25.12;51.09;98667.25;5078329;28;20090;-93
2022/06/27 05:38:27;;;;;;;14.68;5.18;;;;;;;25.20;49.76;98648.44;5077925;28;20040;-96
2022/06/27 05:40:55;;;;;;;12.23;4.78;;;;;;;25.39;49.04;98652.19;5077921;28;20135;-93
2022/06/27 05:43:21;;;;;;;17.58;5.47;;;;;;;25.69;48.24;98664.03;5077530;28;20045;-93
2022/06/27 05:45:48;;;;;;;10.20;4.70;;;;;;;25.67;48.69;98655.16;5076519;28;20042;-92
2022/06/27 05:48:14;;;;;;;14.38;4.32;;;;;;;25.66;48.96;98643.41;5076940;28;20553;-92
2022/06/27 05:50:40;;;;;;;10.45;4.60;;;;;;;25.78;48.41;98663.19;5077033;28;20132;-93
2022/06/27 05:53:06;;;;;;;12.50;5.05;;;;;;;25.99;48.13;98660.38;5076652;28;20072;-93
2022/06/27 05:55:32;;;;;;;14.15;4.28;;;;;;;26.19;47.32;98663.97;5076582;28;20036;-92
2022/06/27 05:58:00;;;;;;;13.32;4.80;;;;;;;26.30;47.22;98658.38;5076469;28;20135;-93
2022/06/27 06:00:27;;;;;;;16.92;5.53;;;;;;;26.50;47.26;98674.72;5076671;28;20064;-93
2022/06/27 06:02:54;;;;;;;13.43;5.30;;;;;;;26.35;46.79;98634.28;5076543;28;20040;-94
2022/06/27 06:05:20;;;;;;;16.20;4.97;;;;;;;26.51;45.62;98649.19;5076431;28;20096;-93
2022/06/27 06:07:46;;;;;;;9.80;4.45;;;;;;;26.66;45.45;98672.31;5077459;28;20048;-93
2022/06/27 06:10:13;;;;;;;13.52;4.72;;;;;;;26.55;45.88;98642.44;5076632;28;20490;-95
2022/06/27 06:12:39;;;;;;;13.57;5.20;;;;;;;26.37;45.42;98645.03;5076138;28;20517;-93
2022/06/27 06:15:08;;;;;;;13.05;4.60;;;;;;;26.48;46.70;98642.16;5076863;28;20044;-92
2022/06/27 06:17:35;;;;;;;12.07;4.40;;;;;;;26.67;45.38;98659.53;5076087;28;20679;-94
2022/06/27 06:20:03;;;;;;;16.17;5.25;;;;;;;26.85;43.45;98663.22;5075765;28;20395;-94
2022/06/27 06:22:29;;;;;;;16.30;5.00;;;;;;;26.83;44.19;98644.28;5077016;28;20560;-93
2022/06/27 06:24:55;;;;;;;12.25;3.97;;;;;;;26.66;42.94;98631.41;5077656;28;20064;-93
2022/06/27 06:27:21;;;;;;;12.18;4.20;;;;;;;26.66;43.53;98645.03;5076961;28;20040;-93
2022/06/27 06:29:47;;;;;;;12.20;4.53;;;;;;;26.27;44.43;98642.31;5075972;28;20040;-94
2022/06/27 06:32:15;;;;;;;16.10;4.22;;;;;;;26.21;44.44;98640.16;5075849;28;20498;-92
2022/06/27 06:34:42;;;;;;;14.70;4.65;;;;;;;26.42;44.11;98664.56;5076484;28;20049;-95
2022/06/27 06:37:09;;;;;;;14.32;4.50;;;;;;;26.15;45.50;98647.03;5075656;28;20040;-91
2022/06/27 06:39:35;;;;;;;20.13;4.80;;;;;;;26.42;44.47;98673.59;5075781;28;20040;-93
2022/06/27 06:42:01;;;;;;;12.80;4.22;;;;;;;26.58;44.77;98662.13;5075242;28;20048;-94
2022/06/27 06:44:27;;;;;;;17.10;5.10;;;;;;;26.94;42.96;98689.63;5075210;28;20062;-94
2022/06/27 06:46:55;;;;;;;17.20;5.28;;;;;;;27.08;43.39;98669.19;5075060;28;20047;-93
2022/06/27 06:49:22;;;;;;;15.30;4.82;;;;;;;27.11;44.00;98679.81;5074685;28;20075;-93
2022/06/27 06:51:49;;;;;;;14.47;4.73;;;;;;;27.33;43.54;98667.69;5075517;28;20048;-94
2022/06/27 06:54:17;;;;;;;14.38;4.60;;;;;;;27.66;43.55;98688.06;5075481;28;20505;-92
2022/06/27 06:56:46;;;;;;;14.52;4.85;;;;;;;27.61;42.53;98698.59;5075068;28;20050;-93
2022/06/27 06:59:13;;;;;;;13.75;4.28;;;;;;;27.07;42.40;98667.47;5074644;28;20458;-93
2022/06/27 07:01:46;;;;;;;15.43;4.35;;;;;;;27.64;42.17;98683.78;5076772;28;20390;-94
2022/06/27 07:04:12;;;;;;;12.30;4.18;;;;;;;27.76;39.25;98651.63;5076464;28;20072;-94
2022/06/27 07:06:40;;;;;;;15.82;4.10;;;;;;;27.94;39.70;98673.56;5077965;28;20049;-94
2022/06/27 07:09:06;;;;;;;12.03;4.00;;;;;;;27.69;39.74;98650.53;5076544;28;20505;-93
2022/06/27 07:11:37;;;;;;;11.32;4.35;;;;;;;27.79;40.01;98663.09;5075243;28;20135;-94
2022/06/27 07:14:07;;;;;;;16.55;4.35;;;;;;;27.94;41.07;98655.28;5076468;28;20140;-92
2022/06/27 07:16:33;;;;;;;13.70;4.60;;;;;;;28.04;40.66;98639.69;5075878;28;20037;-94
2022/06/27 07:19:00;;;;;;;10.60;4.13;;;;;;;28.33;40.16;98634.97;5074816;28;20045;-93
2022/06/27 07:21:31;;;;;;;11.70;3.83;;;;;;;27.87;38.95;98626.84;5075111;28;20036;-94
2022/06/27 07:24:00;;;;;;;10.93;4.00;;;;;;;28.09;40.17;98654.75;5075562;28;20165;-94
2022/06/27 07:26:27;;;;;;;13.75;4.22;;;;;;;27.98;38.46;98640.28;5076954;28;20055;-93
2022/06/27 07:28:55;;;;;;;15.90;4.57;;;;;;;28.13;39.90;98635.16;5075024;28;20048;-95
2022/06/27 07:31:24;;;;;;;14.70;4.50;;;;;;;28.56;37.75;98641.69;5075742;28;20407;-94
2022/06/27 07:33:54;;;;;;;15.25;4.20;;;;;;;28.97;38.75;98652.03;5074782;28;20048;-94
2022/06/27 07:36:22;;;;;;;11.90;4.15;;;;;;;28.78;38.60;98634.84;5074756;28;20076;-94
2022/06/27 07:38:54;;;;;;;15.07;4.22;;;;;;;29.19;38.46;98642.44;5075132;28;20083;-94
2022/06/27 07:41:23;;;;;;;16.40;4.93;;;;;;;29.79;38.09;98663.44;5055286;28;20379;-95
2022/06/27 07:43:54;;;;;;;42.33;7.90;;;;;;;29.99;37.35;98645.66;5054962;28;20135;-95
2022/06/27 07:46:23;;;;;;;12.80;4.00;;;;;;;30.25;35.62;98633.69;5056922;28;20045;-95
2022/06/27 07:48:50;;;;;;;14.93;3.90;;;;;;;29.96;34.65;98640.53;5055266;28;20037;-94
2022/06/27 07:51:19;;;;;;;17.13;5.50;;;;;;;30.22;34.62;98626.69;5054446;28;20541;-93
2022/06/27 07:53:47;;;;;;;15.73;4.65;;;;;;;30.50;35.04;98635.47;5054666;28;20041;-94
2022/06/27 07:56:15;;;;;;;14.85;4.95;;;;;;;30.70;34.79;98635.94;5055643;28;20052;-93
2022/06/27 07:58:45;;;;;;;20.35;5.22;;;;;;;30.90;34.44;98641.09;5054562;28;20041;-95
2022/06/27 08:01:15;;;;;;;19.65;5.40;;;;;;;31.26;33.26;98648.91;5054246;28;20059;-93
2022/06/27 08:03:44;;;;;;;12.73;4.28;;;;;;;31.39;30.31;98640.09;5054864;28;20044;-95
2022/06/27 08:06:19;;;;;;;14.80;4.70;;;;;;;31.41;32.41;98641.63;5053971;28;20506;-93
2022/06/27 08:08:51;;;;;;;13.98;4.20;;;;;;;31.50;32.43;98631.50;5054376;28;20124;-94
2022/06/27 08:11:19;;;;;;;15.55;4.30;;;;;;;31.54;33.73;98643.00;5068336;28;20051;-94
2022/06/27 08:13:50;;;;;;;18.00;5.03;;;;;;;31.50;32.04;98637.00;5074399;28;20459;-94
2022/06/27 08:16:18;;;;;;;13.27;4.82;;;;;;;31.43;31.61;98660.75;5074088;28;20044;-93
2022/06/27 08:18:55;;;;;;;20.45;5.75;;;;;;;31.40;31.51;98620.66;5076641;28;20110;-94
2022/06/27 08:21:27;;;;;;;22.60;5.10;;;;;;;30.93;31.95;98629.78;5074943;28;20044;-94
2022/06/27 08:23:56;;;;;;;17.27;4.93;;;;;;;30.20;32.05;98605.94;5073820;28;20131;-92
2022/06/27 08:26:26;;;;;;;15.30;4.75;;;;;;;30.42;32.86;98619.00;5054131;28;20041;-92
2022/06/27 08:29:02;;;;;;;14.18;4.47;;;;;;;30.50;33.69;98609.91;5068677;28;20037;-93
2022/06/27 08:31:39;;;;;;;18.75;4.80;;;;;;;31.06;32.81;98632.84;5074657;28;20052;-94
2022/06/27 08:34:06;;;;;;;16.40;4.45;;;;;;;30.89;31.70;98623.78;5074028;28;20036;-90
2022/06/27 08:36:35;;;;;;;14.93;4.10;;;;;;;31.28;32.10;98614.72;5081757;28;20095;-93
2022/06/27 08:39:01;;;;;;;16.10;4.07;;;;;;;31.50;31.36;98626.00;5076788;28;20080;-95
2022/06/27 08:41:30;;;;;;;15.00;4.43;;;;;;;31.60;31.68;98601.03;5073663;28;20051;-94
2022/06/27 08:44:12;;;;;;;16.45;4.45;;;;;;;32.03;29.77;98605.09;5075249;28;20494;-95
2022/06/27 08:46:38;;;;;;;20.77;4.55;;;;;;;32.25;29.11;98608.88;5074416;28;20047;-95
2022/06/27 08:49:05;;;;;;;15.57;4.88;;;;;;;32.50;30.14;98606.75;5074459;28;20094;-96
2022/06/27 08:51:35;;;;;;;19.13;5.28;;;;;;;32.49;28.92;98599.56;5074268;28;20455;-94
2022/06/27 08:54:02;;;;;;;15.35;5.13;;;;;;;32.74;29.41;98596.59;5074351;28;20064;-95
2022/06/27 08:56:30;;;;;;;16.10;4.60;;;;;;;33.07;29.01;98612.78;5073674;28;20037;-93
2022/06/27 08:58:59;;;;;;;24.45;4.53;;;;;;;33.12;29.75;98627.72;5074280;28;20064;-92
2022/06/27 09:01:27;;;;;;;40.08;7.93;;;;;;;32.88;30.04;98593.00;5073470;28;20041;-94
2022/06/27 09:03:58;;;;;;;;;;;;;;;33.35;27.14;98615.72;5076449;28;20494;-96
2022/06/27 09:06:26;;;;;;;18.00;4.50;;;;;;;33.53;25.33;98612.59;5077977;28;19921;-93
2022/06/27 09:12:11;;;;;;;20.83;5.25;;;;;;;33.77;25.63;98581.09;5111142;27;20956;-93
2022/06/27 09:14:39;;;;;;;24.38;5.07;;;;;;;33.95;25.28;98594.44;5095344;28;20080;-94
2022/06/27 09:17:15;;;;;;;22.17;5.25;;;;;;;33.96;25.06;98574.06;5095745;28;20498;-94
2022/06/27 09:19:59;;;;;;;22.05;4.63;;;;;;;33.44;25.49;98558.59;5095388;28;20493;-93
2022/06/27 09:22:37;;;;;;;17.38;5.32;;;;;;;33.71;25.18;98557.88;5100611;28;20119;-95
2022/06/27 09:25:06;;;;;;;21.00;4.38;;;;;;;33.85;25.79;98561.63;5098953;28;20059;-96
2022/06/27 09:27:43;;;;;;;27.83;5.60;;;;;;;33.86;24.95;98548.72;5099498;28;20045;-94
2022/06/27 09:30:33;;;;;;;18.83;4.95;;;;;;;34.09;24.61;98554.91;5094093;28;20055;-93
2022/06/27 09:33:00;;;;;;;18.90;5.00;;;;;;;34.20;25.24;98552.66;5094905;28;20115;-94
2022/06/27 09:35:32;;;;;;;17.33;4.38;;;;;;;34.17;25.50;98543.72;5093614;28;20040;-93
2022/06/27 09:37:59;;;;;;;19.48;4.35;;;;;;;34.44;25.52;98560.53;5095352;28;20044;-95
2022/06/27 09:40:32;;;;;;;20.77;5.05;;;;;;;34.21;24.17;98537.81;5096168;28;20059;-94
2022/06/27 09:43:00;;;;;;;16.27;4.55;;;;;;;34.53;25.52;98544.66;5095027;28;20036;-94
2022/06/27 09:45:27;;;;;;;;;;;;;;;34.57;24.64;98549.59;5093714;28;20040;-94
2022/06/27 09:47:58;;;;;;;23.73;5.78;;;;;;;34.51;24.84;98539.34;5096750;28;19969;-94
2022/06/27 09:50:25;;;;;;;21.70;5.03;;;;;;;34.79;24.32;98538.50;5095383;28;20043;-93
2022/06/27 09:52:52;;;;;;;21.48;5.43;;;;;;;34.84;24.13;98510.25;5096234;28;20052;-93
2022/06/27 09:55:23;;;;;;;21.90;5.15;;;;;;;35.02;24.20;98504.19;5095046;28;20040;-95
2022/06/27 09:57:50;;;;;;;23.17;5.20;;;;;;;35.09;24.02;98492.13;5096416;28;20040;-96
2022/06/27 10:00:26;;;;;;;26.65;5.70;;;;;;;34.67;22.85;98504.22;5096915;28;20043;-94
2022/06/27 10:03:16;;;;;;;24.08;4.85;;;;;;;35.03;20.48;98484.66;5096043;28;20044;-94
2022/06/27 10:05:55;;;;;;;27.25;5.07;;;;;;;35.34;20.87;98486.91;5096502;28;20501;-95
2022/06/27 10:09:00;;;;;;;33.83;6.32;;;;;;;35.46;19.99;98469.72;5097087;28;20112;-95
2022/06/27 10:11:41;;;;;;;34.40;5.60;;;;;;;35.65;17.94;98473.63;5100682;28;20075;-93
2022/06/27 10:14:40;;;;;;;30.67;5.07;;;;;;;35.92;17.72;98468.97;5100110;28;20367;-94
2022/06/27 10:24:49;;;;;;;32.53;5.93;;;;;;;36.14;18.22;98469.66;5045464;28;20043;-92
2022/06/27 10:28:14;;;;;;;23.02;4.97;;;;;;;36.15;18.38;98451.97;4966337;29;20039;-95
2022/06/27 10:30:52;;;;;;;28.73;5.20;;;;;;;36.27;17.84;98454.94;4958171;28;20043;-95
2022/06/27 10:33:48;;;;;;;25.58;5.93;;;;;;;36.64;17.10;98453.41;4947775;29;20056;-93
2022/06/27 10:36:22;;;;;;;25.63;5.07;;;;;;;36.80;17.35;98454.84;4948913;29;20071;-96
2022/06/27 10:38:54;;;;;;;27.05;4.93;;;;;;;36.86;17.23;98490.00;4955433;28;20077;-93
2022/06/27 10:41:39;;;;;;;29.60;5.05;;;;;;;36.98;16.81;98487.41;4986268;28;20501;-95
2022/06/27 10:44:36;;;;;;;26.85;4.75;;;;;;;37.14;16.27;98469.47;4982269;28;20411;-95
2022/06/27 10:47:02;;;;;;;25.67;4.90;;;;;;;37.37;16.50;98460.59;4928223;29;20685;-92
2022/06/27 10:49:32;;;;;;;26.80;5.65;;;;;;;37.66;15.81;98459.16;4928035;28;20494;-96
2022/06/27 10:52:34;;;;;;;26.45;5.38;;;;;;;37.11;16.83;98456.06;4984551;28;20130;-93
2022/06/27 10:55:21;;;;;;;24.23;5.13;;;;;;;36.72;16.54;98480.03;4985754;28;20042;-93
2022/06/27 10:58:16;;;;;;;24.75;4.88;;;;;;;36.72;15.95;98460.66;5010818;28;20068;-95
2022/06/27 11:01:15;;;;;;;22.80;4.60;;;;;;;36.83;16.82;98459.13;4972110;29;20039;-96
2022/06/27 11:08:15;;;;;;;;;;;;;;;;;;;;;
2022/06/27 11:10:47;;;;;;;24.98;5.35;;;;;;;36.25;16.67;98443.22;4966313;29;20047;-94
2022/06/27 11:14:03;;;;;;;21.38;4.85;;;;;;;35.94;17.72;98481.53;4966119;29;20039;-93
2022/06/27 11:17:04;;;;;;;31.60;5.53;;;;;;;35.38;17.50;98455.03;4967731;29;20139;-95
2022/06/27 11:33:15;;;;;;;28.52;5.20;;;;;;;35.97;17.41;98460.88;6213657;22;1965526;-93
2022/06/27 11:35:45;;;;;;;24.02;4.53;;;;;;;35.63;16.90;98443.41;6263588;23;20020;-94
2022/06/27 11:38:20;;;;;;;27.05;5.30;;;;;;;35.58;17.99;98465.28;6264843;23;20015;-95
2022/06/27 11:41:12;;;;;;;22.08;5.75;;;;;;;35.71;17.31;98476.41;6264525;23;20023;-95
2022/06/27 11:44:03;;;;;;;21.77;5.03;;;;;;;36.01;16.95;98439.19;6263288;23;20020;-94
2022/06/27 11:46:34;;;;;;;18.45;4.75;;;;;;;36.48;17.31;98438.09;6260802;23;20019;-96
2022/06/27 11:49:33;;;;;;;22.80;4.60;;;;;;;36.51;17.57;98429.31;6260036;23;20016;-94
2022/06/27 11:52:27;;;;;;;24.02;5.00;;;;;;;36.75;16.96;98435.25;6259937;23;20076;-94
2022/06/27 11:55:07;;;;;;;24.67;4.80;;;;;;;36.80;16.50;98435.44;6257593;23;20385;-94
2022/06/27 11:57:54;;;;;;;26.52;5.57;;;;;;;37.07;16.10;98454.75;6260953;23;20103;-93
2022/06/27 12:00:24;;;;;;;;;;;;;;;37.33;16.43;98474.06;6262859;23;20122;-95
2022/06/27 12:03:22;;;;;;;25.45;4.70;;;;;;;37.27;16.59;98440.81;6261833;23;19916;-95
2022/06/27 12:06:15;;;;;;;25.85;4.93;;;;;;;37.10;15.38;98449.63;6242446;23;20145;-93
2022/06/27 12:09:16;;;;;;;23.95;5.22;;;;;;;37.10;15.53;98434.94;6265332;23;20016;-95